Time;durP1;ratioP1;P1;durP2;ratioP2;P2;SDS_P1;SDS_P2;PMS_P1;PMS_P2;Temp;Humidity;BMP_temperature;BMP_pressure;BME280_temperature;BME280_humidity;BME280_pressure;Samples;Min_cycle;Max_cycle;Signal;HPM_P1;HPM_P2
2021/05/31 00:01:41;;;;;;;3.22;2.67;;;13.40;46.30;;;14.08;38.45;98145.31;5045657;28;20053;-34
2021/05/31 00:04:09;;;;;;;4.82;2.67;;;13.40;46.30;;;14.04;38.29;98139.47;5044740;28;20049;-34
2021/05/31 00:06:50;;;;;;;4.43;2.67;;;13.30;46.40;;;13.99;38.22;98139.13;5045486;28;20063;-34
2021/05/31 00:09:17;;;;;;;3.28;2.50;;;13.30;47.00;;;13.96;38.52;98134.97;5044549;28;20063;-34
2021/05/31 00:11:45;;;;;;;3.22;2.53;;;13.30;46.60;;;13.94;38.59;98130.81;5045405;28;20062;-34
2021/05/31 00:14:14;;;;;;;5.88;3.03;;;13.20;46.60;;;13.88;38.81;98129.66;5044826;28;20066;-34
2021/05/31 00:16:43;;;;;;;4.80;2.78;;;13.20;46.90;;;13.85;38.98;98131.81;5046314;28;20059;-34
2021/05/31 00:19:12;;;;;;;3.58;2.40;;;13.10;47.00;;;13.83;38.88;98131.16;5045177;28;20048;-34
2021/05/31 00:21:40;;;;;;;4.50;2.65;;;13.10;47.10;;;13.81;38.88;98119.78;5046189;28;20076;-33
2021/05/31 00:24:08;;;;;;;6.85;3.15;;;13.10;47.20;;;13.76;39.30;98121.13;5045591;28;20633;-33
2021/05/31 00:26:36;;;;;;;4.55;2.47;;;13.10;47.50;;;13.74;39.17;98125.78;5045646;28;20254;-33
2021/05/31 00:29:04;;;;;;;4.85;2.85;;;13.10;47.60;;;13.72;39.24;98118.94;5044565;28;20188;-33
2021/05/31 00:31:33;;;;;;;5.45;2.50;;;13.10;47.70;;;13.69;39.58;98119.31;5044408;28;20059;-33
2021/05/31 00:34:01;;;;;;;4.55;2.65;;;13.10;47.80;;;13.64;39.33;98111.78;5044677;28;20057;-33
2021/05/31 00:36:30;;;;;;;4.00;2.65;;;13.00;47.80;;;13.61;39.79;98113.94;5045009;28;20255;-33
2021/05/31 00:38:57;;;;;;;4.97;2.55;;;12.90;48.10;;;13.56;39.69;98109.09;5059674;28;20060;-33
2021/05/31 00:41:25;;;;;;;4.47;2.75;;;12.90;48.40;;;13.52;39.76;98108.59;5044682;28;20235;-33
2021/05/31 00:43:53;;;;;;;3.50;2.70;;;12.90;48.30;;;13.48;40.11;98104.59;5043354;28;20057;-34
2021/05/31 00:46:25;;;;;;;5.20;2.63;;;12.80;48.50;;;13.42;40.27;98096.44;5044153;28;20071;-34
2021/05/31 00:48:53;;;;;;;4.60;2.88;;;12.70;49.00;;;13.37;39.95;98097.75;5044150;28;20056;-33
2021/05/31 00:51:21;;;;;;;3.47;2.70;;;12.60;48.60;;;13.33;40.10;98098.25;5045348;28;20065;-33
2021/05/31 00:53:49;;;;;;;4.32;3.28;;;12.70;48.90;;;13.26;40.63;98098.06;5045066;28;20342;-33
2021/05/31 00:56:18;;;;;;;3.80;2.55;;;12.50;49.30;;;13.22;40.72;98101.22;5043984;28;20064;-33
2021/05/31 00:58:46;;;;;;;3.28;2.45;;;12.50;49.60;;;13.19;40.58;98097.88;5043875;28;20063;-33
2021/05/31 01:01:17;;;;;;;4.03;2.78;;;12.50;49.50;;;13.19;41.02;98105.09;5044509;28;20045;-33
2021/05/31 01:03:44;;;;;;;3.90;2.63;;;12.50;49.60;;;13.13;40.66;98092.38;5045235;28;20373;-33
2021/05/31 01:06:17;;;;;;;2.90;2.58;;;12.40;49.50;;;13.10;40.87;98098.06;5044515;28;20494;-33
2021/05/31 01:09:17;;;;;;;4.15;2.38;;;12.40;49.80;;;13.05;41.13;98103.91;5044154;28;20465;-33
2021/05/31 01:12:08;;;;;;;3.25;2.50;;;12.30;51.10;;;13.00;40.99;98104.38;5043870;28;20063;-33
2021/05/31 01:15:29;;;;;;;4.25;3.45;;;12.30;51.10;;;12.93;41.28;98099.88;5044896;28;20053;-34
2021/05/31 01:18:31;;;;;;;3.15;2.35;;;12.20;51.60;;;12.91;41.06;98101.88;5042539;28;20350;-33
2021/05/31 01:21:26;;;;;;;5.25;3.75;;;12.20;50.30;;;12.88;41.09;98096.88;5045492;28;20067;-33
2021/05/31 01:24:25;;;;;;;4.75;3.00;;;12.20;50.80;;;12.81;41.48;98102.03;5045579;28;20048;-33
2021/05/31 01:27:10;;;;;;;8.57;3.78;;;12.10;51.50;;;12.73;41.70;98096.66;5047730;28;20261;-33
2021/05/31 01:29:40;;;;;;;4.85;2.60;;;12.00;52.30;;;12.65;42.16;98094.81;5048331;28;20053;-33
2021/05/31 01:32:10;;;;;;;3.85;2.90;;;11.80;51.20;;;12.63;41.63;98098.66;5047528;28;20053;-33
2021/05/31 01:34:41;;;;;;;3.65;2.80;;;11.80;51.20;;;12.59;41.62;98098.97;5049582;28;20350;-33
2021/05/31 01:37:15;;;;;;;6.33;3.30;;;11.80;51.40;;;12.54;41.76;98090.63;5048563;28;20061;-34
2021/05/31 01:39:46;;;;;;;;;;;11.80;51.80;;;12.50;41.68;98091.09;5047459;28;20053;-34
2021/05/31 01:42:15;;;;;;;3.85;2.85;;;11.70;53.60;;;12.50;41.59;98091.91;5046499;28;19916;-34
2021/05/31 01:44:45;;;;;;;4.65;2.80;;;11.70;51.30;;;12.49;41.72;98095.63;5047771;28;20057;-34
2021/05/31 01:47:13;;;;;;;4.90;2.80;;;11.80;51.40;;;12.47;42.29;98084.25;5048168;28;20277;-34
2021/05/31 01:49:44;;;;;;;7.17;3.40;;;11.70;51.50;;;12.44;41.89;98086.41;5047747;28;20060;-34
2021/05/31 01:52:15;;;;;;;4.17;2.70;;;11.70;51.60;;;12.39;42.36;98082.41;5047370;28;20075;-34
2021/05/31 01:54:43;;;;;;;3.93;2.93;;;11.70;51.80;;;12.38;42.71;98087.88;5046657;28;20061;-34
2021/05/31 01:57:12;;;;;;;4.13;2.70;;;11.70;51.90;;;12.34;42.23;98082.03;5047155;28;20064;-34
2021/05/31 01:59:40;;;;;;;4.63;2.80;;;11.60;52.20;;;12.28;42.66;98082.69;5048385;28;20064;-33
2021/05/31 02:02:08;;;;;;;3.23;2.47;;;11.60;52.20;;;12.26;42.72;98082.00;5046009;28;20049;-34
2021/05/31 02:04:36;;;;;;;6.53;2.60;;;11.60;52.10;;;12.27;43.00;98073.03;5046915;28;20346;-34
2021/05/31 02:07:04;;;;;;;4.27;3.00;;;11.60;52.20;;;12.27;42.84;98072.16;5048515;28;20343;-34
2021/05/31 02:09:32;;;;;;;3.70;2.60;;;11.60;52.10;;;12.27;42.91;98080.16;5047504;28;20044;-34
2021/05/31 02:12:09;;;;;;;3.40;2.70;;;11.60;52.00;;;12.26;42.53;98075.84;5047335;28;20056;-34
2021/05/31 02:15:00;;;;;;;5.43;2.97;;;11.60;51.90;;;12.21;43.13;98070.97;5047464;28;20052;-34
2021/05/31 02:17:37;;;;;;;3.13;2.47;;;11.50;53.50;;;12.16;43.15;98066.13;5048333;28;20045;-33
2021/05/31 02:20:13;;;;;;;4.53;3.27;;;11.40;52.70;;;12.13;43.15;98065.59;5046781;28;20059;-33
2021/05/31 02:22:48;;;;;;;4.20;2.60;;;11.40;52.60;;;12.07;42.97;98068.94;5046927;28;20261;-33
2021/05/31 02:25:17;;;;;;;4.27;2.70;;;11.40;53.40;;;12.05;43.23;98070.91;5047948;28;20276;-33
2021/05/31 02:27:47;;;;;;;4.43;2.83;;;11.30;53.00;;;12.02;43.42;98072.91;5047532;28;20063;-33
2021/05/31 02:30:18;;;;;;;5.13;3.30;;;11.30;52.80;;;12.01;43.16;98076.56;5048264;28;20350;-34
2021/05/31 02:32:59;;;;;;;4.43;3.07;;;11.40;52.50;;;11.98;43.01;98068.03;5047840;28;20045;-33
2021/05/31 02:35:31;;;;;;;4.37;2.83;;;11.40;52.80;;;11.95;43.25;98069.19;5046301;28;20354;-33
2021/05/31 02:38:03;;;;;;;6.10;3.20;;;11.30;52.50;;;11.93;43.09;98073.03;5048500;28;20063;-33
2021/05/31 02:40:33;;;;;;;4.50;2.90;;;11.20;52.60;;;11.88;43.13;98065.47;5044773;28;20064;-33
2021/05/31 02:43:05;;;;;;;5.50;2.90;;;11.20;52.70;;;11.84;43.21;98069.44;5047124;28;20061;-33
2021/05/31 02:45:33;;;;;;;3.37;2.57;;;11.10;52.90;;;11.80;43.48;98068.09;5047990;28;20222;-33
2021/05/31 02:48:04;;;;;;;3.53;2.97;;;11.10;52.80;;;11.76;43.42;98072.06;5046905;28;20393;-33
2021/05/31 02:50:33;;;;;;;4.70;2.47;;;11.00;52.90;;;11.75;43.30;98068.56;5047849;28;20063;-33
2021/05/31 02:53:04;;;;;;;5.40;2.90;;;11.10;52.80;;;11.75;43.39;98067.75;5048327;28;20354;-33
2021/05/31 02:55:33;;;;;;;7.20;3.27;;;11.00;52.90;;;11.72;43.53;98068.88;5047312;28;20531;-34
2021/05/31 02:58:00;;;;;;;4.83;3.07;;;11.10;52.90;;;11.72;43.63;98066.22;5045936;28;20044;-33
2021/05/31 03:00:30;;;;;;;4.07;3.03;;;11.10;52.90;;;11.72;43.77;98062.72;5046836;28;20052;-33
2021/05/31 03:02:58;;;;;;;3.87;2.73;;;11.00;52.90;;;11.68;43.76;98064.03;5045702;28;20052;-33
2021/05/31 03:05:29;;;;;;;3.83;2.60;;;11.00;53.00;;;11.66;43.82;98066.03;5046911;28;20140;-33
2021/05/31 03:07:59;;;;;;;4.43;2.97;;;11.00;53.30;;;11.64;43.84;98066.16;5045711;28;20059;-33
2021/05/31 03:10:29;;;;;;;5.17;2.93;;;10.90;53.10;;;11.62;43.74;98070.84;5046309;28;20219;-33
2021/05/31 03:13:01;;;;;;;5.50;2.83;;;10.90;53.40;;;11.60;43.53;98070.16;5045762;28;20373;-33
2021/05/31 03:15:30;;;;;;;4.80;3.20;;;10.90;53.70;;;11.57;43.62;98065.13;5047616;28;20700;-33
2021/05/31 03:17:58;;;;;;;5.53;2.93;;;10.80;53.40;;;11.49;43.65;98068.56;5046938;28;20223;-33
2021/05/31 03:20:29;;;;;;;5.80;3.20;;;10.70;53.60;;;11.43;44.03;98067.38;5046573;28;20052;-33
2021/05/31 03:22:57;;;;;;;4.30;3.27;;;10.70;54.10;;;11.42;43.92;98075.53;5044790;28;20049;-33
2021/05/31 03:25:25;;;;;;;4.80;3.30;;;10.70;53.80;;;11.39;44.08;98067.84;5047019;28;20377;-34
2021/05/31 03:27:55;;;;;;;5.23;3.67;;;10.70;53.90;;;11.37;44.26;98069.84;5046430;28;20239;-34
2021/05/31 03:30:23;;;;;;;3.73;2.73;;;10.70;54.00;;;11.36;44.10;98076.13;5044469;28;20080;-34
2021/05/31 03:32:51;;;;;;;3.90;2.80;;;10.70;53.90;;;11.35;44.18;98075.31;5045760;28;20068;-34
2021/05/31 03:35:19;;;;;;;4.07;2.87;;;10.70;53.90;;;11.35;44.46;98074.47;5045956;28;20055;-34
2021/05/31 03:37:48;;;;;;;4.07;3.13;;;10.70;53.90;;;11.34;44.30;98075.47;5047041;28;20070;-34
2021/05/31 03:40:21;;;;;;;8.40;3.53;;;10.70;54.00;;;11.29;44.66;98081.28;5045132;28;20083;-34
2021/05/31 03:42:55;;;;;;;4.72;2.92;;;10.50;54.20;;;11.25;44.56;98073.75;5046093;28;20047;-34
2021/05/31 03:45:23;;;;;;;5.20;3.10;;;10.40;54.70;;;11.22;44.36;98072.22;5045452;28;20208;-34
2021/05/31 03:47:52;;;;;;;4.57;3.00;;;10.50;54.40;;;11.21;44.42;98071.38;5046032;28;20294;-35
2021/05/31 03:50:20;;;;;;;5.60;3.10;;;10.50;54.30;;;11.18;44.76;98078.84;5047371;28;20055;-34
2021/05/31 03:52:49;;;;;;;4.37;3.20;;;10.50;54.40;;;11.19;44.97;98077.88;5045776;28;20048;-34
2021/05/31 03:55:18;;;;;;;4.97;2.80;;;10.50;54.30;;;11.18;44.79;98077.00;5045048;28;20056;-34
2021/05/31 03:57:46;;;;;;;7.90;3.60;;;10.60;54.40;;;11.18;45.03;98077.00;5045846;28;20052;-32
2021/05/31 04:00:15;;;;;;;4.50;2.80;;;10.60;54.50;;;11.16;44.80;98081.66;5045004;28;20056;-33
2021/05/31 04:02:44;;;;;;;5.43;3.27;;;10.50;54.60;;;11.16;45.13;98078.16;5046518;28;20061;-33
2021/05/31 04:05:15;;;;;;;5.27;3.47;;;10.50;54.60;;;11.14;45.39;98078.31;5043818;28;20083;-33
2021/05/31 04:13:21;;;;;;;7.17;2.97;;;10.40;55.00;;;11.10;45.18;98074.28;5044914;28;20223;-34
2021/05/31 04:15:49;;;;;;;3.67;2.60;;;10.40;54.90;;;11.11;45.50;98077.78;5045424;28;20049;-33
2021/05/31 04:18:17;;;;;;;4.57;2.93;;;10.50;55.00;;;11.13;45.32;98076.66;5045316;28;20045;-33
2021/05/31 04:20:45;;;;;;;6.37;3.10;;;10.60;54.80;;;11.16;45.55;98072.84;5046189;28;20485;-34
2021/05/31 04:23:13;;;;;;;4.50;2.40;;;10.60;54.90;;;11.17;45.53;98072.69;5045712;28;20053;-33
2021/05/31 04:25:41;;;;;;;4.13;2.90;;;10.60;54.90;;;11.21;45.69;98079.38;5045577;28;20044;-33
2021/05/31 04:28:09;;;;;;;3.97;3.10;;;10.70;54.80;;;11.25;45.78;98079.06;5044722;28;20052;-32
2021/05/31 04:30:37;;;;;;;4.37;2.97;;;10.80;54.80;;;11.28;45.49;98084.91;5048780;22;20030;-32
2021/05/31 04:33:05;;;;;;;6.00;3.10;;;10.80;54.80;;;11.33;45.47;98082.63;5004464;28;20053;-33
2021/05/31 04:35:33;;;;;;;4.13;2.63;;;10.80;54.70;;;11.39;45.64;98083.84;5005479;28;20057;-33
2021/05/31 04:38:01;;;;;;;3.80;2.80;;;10.90;54.60;;;11.42;45.44;98079.03;5006081;28;20234;-33
2021/05/31 04:40:29;;;;;;;3.93;2.30;;;11.00;54.50;;;11.48;45.63;98071.41;5004150;28;20064;-33
2021/05/31 04:42:57;;;;;;;3.00;2.20;;;11.10;54.30;;;11.54;45.71;98081.44;5004801;28;20045;-33
2021/05/31 04:45:25;;;;;;;4.87;2.60;;;11.20;54.20;;;11.60;45.60;98073.66;5003591;28;20050;-32
2021/05/31 04:47:53;;;;;;;3.27;2.40;;;11.30;54.10;;;11.66;45.49;98082.84;5004493;28;20053;-34
2021/05/31 04:50:21;;;;;;;3.73;2.80;;;11.30;53.90;;;11.73;45.32;98073.25;5005267;28;20369;-34
2021/05/31 04:52:49;;;;;;;3.63;2.50;;;11.40;53.60;;;11.80;45.01;98066.25;5003103;28;20373;-33
2021/05/31 04:55:17;;;;;;;2.87;2.37;;;11.50;53.50;;;11.88;45.30;98069.97;5006175;28;20054;-34
2021/05/31 04:57:46;;;;;;;3.43;2.80;;;11.70;53.30;;;11.96;45.19;98072.69;5005260;28;20066;-33
2021/05/31 05:00:16;;;;;;;4.53;3.13;;;11.70;53.30;;;12.02;45.16;98077.41;5006197;28;20064;-33
2021/05/31 05:02:44;;;;;;;3.83;2.50;;;11.80;53.30;;;12.06;45.24;98078.78;5003771;28;20061;-34
2021/05/31 05:05:13;;;;;;;4.90;2.60;;;11.80;53.30;;;12.11;45.50;98084.44;5004331;28;20061;-33
2021/05/31 05:07:47;;;;;;;7.13;2.90;;;11.90;53.40;;;12.15;45.10;98083.13;5004485;28;20084;-33
2021/05/31 05:10:18;;;;;;;5.10;2.70;;;11.90;53.60;;;12.20;45.18;98082.66;5005939;28;20362;-33
2021/05/31 05:12:49;;;;;;;6.47;3.60;;;11.90;53.50;;;12.20;45.51;98080.00;5005635;28;20069;-33
2021/05/31 05:15:21;;;;;;;3.80;3.00;;;12.00;53.40;;;12.20;45.42;98082.66;5003451;28;20050;-34
2021/05/31 05:17:49;;;;;;;4.45;3.05;;;12.10;53.40;;;12.24;45.56;98086.69;5003381;28;20056;-34
2021/05/31 05:20:20;;;;;;;3.83;3.10;;;12.10;53.50;;;12.27;45.47;98090.84;5003983;28;20050;-33
2021/05/31 05:22:48;;;;;;;5.43;3.95;;;12.10;53.80;;;12.31;45.54;98090.38;5004663;28;20136;-34
2021/05/31 05:25:16;;;;;;;3.72;2.80;;;12.10;53.80;;;12.33;45.42;98087.53;5003369;28;20058;-34
2021/05/31 05:27:47;;;;;;;5.63;3.45;;;12.10;53.80;;;12.37;45.73;98089.72;5004475;28;20068;-34
2021/05/31 05:30:24;;;;;;;5.50;3.10;;;12.10;53.90;;;12.39;45.16;98090.41;5005738;28;20050;-33
2021/05/31 05:32:53;;;;;;;6.88;3.50;;;12.10;54.10;;;12.43;45.77;98092.72;5004599;28;20117;-34
2021/05/31 05:48:29;;;;;;;4.20;2.85;;;12.30;53.60;;;12.59;45.49;98098.13;5004013;28;20050;-33
2021/05/31 05:51:08;;;;;;;8.75;3.40;;;12.30;53.50;;;12.63;45.39;98101.31;5004393;28;20064;-32
2021/05/31 05:53:42;;;;;;;5.00;2.92;;;12.40;53.50;;;12.68;45.10;98104.31;5005230;28;20057;-33
2021/05/31 05:56:20;;;;;;;7.65;3.50;;;12.40;53.40;;;12.70;45.06;98102.34;5004864;28;20054;-33
2021/05/31 05:58:51;;;;;;;5.47;3.33;;;12.40;53.40;;;12.73;45.61;98096.66;5005222;28;20064;-32
2021/05/31 06:01:20;;;;;;;5.35;3.58;;;12.50;53.50;;;12.74;45.25;98101.03;5003783;28;20050;-33
2021/05/31 06:03:51;;;;;;;4.72;3.17;;;12.50;53.60;;;12.76;45.56;98099.03;5004221;28;20054;-33
2021/05/31 06:06:21;;;;;;;7.22;4.28;;;12.50;53.40;;;12.79;45.38;98104.88;5005338;28;20369;-33
2021/05/31 06:08:49;;;;;;;6.15;3.47;;;12.60;53.20;;;12.83;45.22;98096.53;5003738;28;20377;-33
2021/05/31 06:11:18;;;;;;;7.30;3.50;;;12.60;53.20;;;12.86;45.09;98105.03;5008644;28;20057;-33
2021/05/31 06:13:50;;;;;;;7.07;3.65;;;12.70;53.20;;;12.92;45.26;98103.56;5008879;28;20054;-34
2021/05/31 06:16:20;;;;;;;7.03;4.00;;;12.70;53.20;;;12.95;45.51;98112.09;5007365;28;20069;-34
2021/05/31 06:18:48;;;;;;;7.55;3.88;;;12.70;53.30;;;12.99;45.41;98112.59;5008163;28;20062;-33
2021/05/31 06:21:16;;;;;;;9.47;4.20;;;12.80;53.30;;;13.04;45.30;98112.09;5006699;28;20344;-34
2021/05/31 06:23:43;;;;;;;6.18;3.95;;;12.80;53.30;;;13.06;45.37;98110.91;5007394;28;20471;-34
2021/05/31 06:26:12;;;;;;;8.10;4.50;;;12.90;53.20;;;13.11;45.55;98110.44;5006855;28;20661;-34
2021/05/31 06:28:40;;;;;;;5.35;4.00;;;13.00;53.10;;;13.16;45.56;98102.72;5008846;28;20363;-33
2021/05/31 06:31:08;;;;;;;5.95;3.85;;;13.00;53.00;;;13.22;45.16;98115.44;5007362;28;20050;-34
2021/05/31 06:33:36;;;;;;;7.13;3.67;;;13.10;53.00;;;13.27;45.51;98118.44;5006182;28;20072;-33
2021/05/31 06:36:08;;;;;;;7.05;2.90;;;13.10;52.90;;;13.27;45.49;98110.44;5007283;28;20053;-33
2021/05/31 06:38:36;;;;;;;5.30;2.92;;;13.20;52.70;;;13.32;45.40;98109.97;5007727;28;20154;-33
2021/05/31 06:41:04;;;;;;;4.60;3.28;;;13.30;52.90;;;13.38;45.21;98107.44;5008226;28;20053;-33
2021/05/31 06:43:33;;;;;;;6.60;4.25;;;13.30;52.70;;;13.44;44.93;98102.44;5003395;28;20371;-33
2021/05/31 06:46:05;;;;;;;5.63;3.85;;;13.40;52.70;;;13.48;45.03;98103.78;4986901;28;20585;-32
2021/05/31 06:48:33;;;;;;;5.32;3.72;;;13.40;52.70;;;13.53;45.15;98102.28;4988498;28;20057;-33
2021/05/31 06:51:01;;;;;;;6.40;3.67;;;13.40;52.70;;;13.59;44.90;98103.44;4987855;28;20056;-33
2021/05/31 06:53:30;;;;;;;4.68;3.70;;;13.50;52.60;;;13.60;44.73;98102.41;4988252;28;20755;-34
2021/05/31 06:55:58;;;;;;;5.22;3.17;;;13.60;52.30;;;13.66;44.96;98106.25;4987487;28;20429;-34
2021/05/31 06:58:26;;;;;;;7.47;3.40;;;13.60;52.50;;;13.71;44.93;98106.59;4987184;28;20054;-34
2021/05/31 07:00:54;;;;;;;4.25;3.30;;;13.60;52.50;;;13.74;45.02;98104.38;4987564;28;20062;-33
2021/05/31 07:03:22;;;;;;;4.20;3.45;;;13.70;52.50;;;13.80;45.35;98108.22;4987502;28;20044;-33
2021/05/31 07:05:50;;;;;;;4.88;3.40;;;13.80;52.50;;;13.83;45.02;98102.53;4986454;28;20046;-33
2021/05/31 07:08:17;;;;;;;6.07;3.50;;;13.80;52.60;;;13.84;45.46;98106.91;4986610;28;20248;-34
2021/05/31 07:10:46;;;;;;;5.15;3.90;;;13.70;53.10;;;13.82;45.38;98092.84;4987926;28;20221;-34
2021/05/31 07:13:14;;;;;;;4.50;3.08;;;13.70;53.60;;;13.87;45.48;98098.53;4987721;28;20259;-34
2021/05/31 07:15:42;;;;;;;6.90;3.42;;;13.70;53.10;;;13.94;45.11;98096.00;4987341;28;20058;-34
2021/05/31 07:18:13;;;;;;;4.55;2.83;;;13.90;52.70;;;13.99;45.43;98101.66;4987256;28;20080;-33
2021/05/31 07:20:41;;;;;;;4.10;3.00;;;14.00;53.10;;;14.05;45.49;98106.31;4985888;28;20061;-33
2021/05/31 07:23:09;;;;;;;6.40;3.25;;;14.00;52.80;;;14.13;44.80;98097.44;4984399;28;20050;-33
2021/05/31 07:25:38;;;;;;;2.90;2.58;;;14.10;52.20;;;14.21;44.42;98105.47;4988990;28;20060;-33
2021/05/31 07:28:06;;;;;;;6.60;2.45;;;14.20;51.80;;;14.27;44.19;98104.75;4987349;28;20054;-34
2021/05/31 07:30:34;;;;;;;4.40;2.83;;;14.30;51.20;;;14.34;44.03;98100.34;5002418;28;20374;-33
2021/05/31 07:33:02;;;;;;;4.60;2.30;;;14.30;51.00;;;14.39;43.64;98097.19;4986212;28;20054;-33
2021/05/31 07:35:30;;;;;;;4.22;2.60;;;14.40;50.40;;;14.45;43.02;98101.00;4986480;28;20054;-33
2021/05/31 07:37:58;;;;;;;5.47;2.63;;;14.50;50.00;;;14.53;42.83;98103.63;4986936;28;20362;-33
2021/05/31 07:40:27;;;;;;;5.45;2.92;;;14.60;49.90;;;14.59;43.00;98100.28;4987023;28;20252;-33
2021/05/31 07:42:55;;;;;;;6.65;2.72;;;14.70;50.00;;;14.65;43.11;98096.06;4986216;28;20058;-33
2021/05/31 07:45:24;;;;;;;4.68;2.70;;;14.70;49.80;;;14.70;42.51;98091.84;4984364;28;20050;-33
2021/05/31 07:47:52;;;;;;;6.45;2.75;;;14.80;49.10;;;14.78;42.60;98093.66;5014754;28;20058;-33
2021/05/31 07:50:21;;;;;;;3.50;2.40;;;14.90;49.20;;;14.84;42.62;98092.94;5012659;28;20092;-33
2021/05/31 07:52:49;;;;;;;3.58;2.72;;;14.90;50.00;;;14.90;42.46;98102.13;5021675;28;20046;-33
2021/05/31 07:55:18;;;;;;;3.58;2.80;;;15.00;48.60;;;14.96;41.69;98102.22;5021573;28;20041;-33
2021/05/31 07:57:47;;;;;;;3.55;2.88;;;15.00;48.10;;;15.00;41.03;98096.53;5020956;28;20046;-33
2021/05/31 08:00:18;;;;;;;5.45;2.10;;;15.10;47.10;;;15.09;40.65;98096.28;5016999;28;20033;-34
2021/05/31 08:02:51;;;;;;;2.70;2.15;;;15.10;47.30;;;15.14;40.87;98085.88;5019583;28;20064;-34
2021/05/31 08:05:20;;;;;;;5.38;2.72;;;15.30;47.70;;;15.22;40.35;98084.09;5030764;28;20347;-34
2021/05/31 08:07:48;;;;;;;3.42;2.33;;;15.30;46.40;;;15.30;40.44;98079.53;5028645;28;20053;-33
2021/05/31 08:10:18;;;;;;;2.88;2.15;;;15.40;46.40;;;15.35;39.65;98077.16;5024946;28;20049;-34
2021/05/31 08:12:51;;;;;;;4.13;2.38;;;15.50;45.40;;;15.39;39.56;98077.59;5030949;28;20042;-34
2021/05/31 08:15:20;;;;;;;2.75;1.77;;;15.50;44.40;;;15.47;38.75;98079.38;5031309;28;20058;-34
2021/05/31 08:17:48;;;;;;;4.55;2.30;;;15.60;44.50;;;15.52;38.34;98080.50;5030331;28;20381;-34
2021/05/31 08:20:19;;;;;;;6.22;2.85;;;15.60;44.10;;;15.58;38.41;98080.78;5024991;28;20057;-34
2021/05/31 08:22:48;;;;;;;3.15;2.10;;;15.70;43.80;;;15.60;38.05;98074.22;5021838;28;20367;-34
2021/05/31 08:25:17;;;;;;;3.13;2.22;;;15.70;43.50;;;15.68;37.86;98071.47;5016731;28;20056;-34
2021/05/31 08:27:46;;;;;;;3.33;2.85;;;15.80;43.20;;;15.72;37.70;98069.22;4983674;28;20050;-32
2021/05/31 08:30:17;;;;;;;4.78;2.40;;;15.80;43.00;;;15.74;37.26;98078.81;5001622;28;20066;-34
2021/05/31 08:32:46;;;;;;;5.53;2.58;;;15.90;42.50;;;15.84;37.56;98069.63;5016507;28;20085;-33
2021/05/31 08:35:15;;;;;;;2.88;2.42;;;16.00;42.90;;;15.86;37.19;98073.00;5001719;28;20057;-35
2021/05/31 08:37:44;;;;;;;3.28;1.90;;;16.00;42.40;;;15.88;36.98;98066.41;5016228;28;20050;-35
2021/05/31 08:40:14;;;;;;;2.83;2.03;;;16.00;42.20;;;15.92;37.06;98065.03;5000136;28;20054;-35
2021/05/31 08:42:43;;;;;;;3.38;2.45;;;16.00;42.10;;;15.94;36.77;98067.53;5000717;28;20072;-34
2021/05/31 08:45:17;;;;;;;3.55;2.33;;;16.00;42.00;;;15.95;36.17;98071.88;5036625;28;20050;-35
2021/05/31 08:47:51;;;;;;;3.85;2.08;;;16.10;41.00;;;16.00;36.02;98076.69;5040591;28;20049;-35
2021/05/31 08:50:27;;;;;;;4.00;2.67;;;16.10;41.80;;;16.03;36.44;98073.63;5040402;28;20053;-35
2021/05/31 08:52:57;;;;;;;3.10;2.40;;;16.10;41.80;;;16.03;36.38;98071.81;5040870;28;20047;-34
2021/05/31 08:55:28;;;;;;;4.18;2.50;;;16.10;41.50;;;16.05;36.29;98076.97;5039782;28;20363;-35
2021/05/31 08:57:58;;;;;;;4.63;2.10;;;16.10;41.30;;;16.09;36.37;98072.88;5040168;28;20393;-35
2021/05/31 09:00:33;;;;;;;4.60;2.35;;;16.20;41.50;;;16.16;36.39;98078.34;5029220;28;20041;-35
2021/05/31 09:03:09;;;;;;;6.03;4.78;;;16.20;41.70;;;16.19;35.47;98073.44;5016262;28;20340;-34
2021/05/31 09:05:44;;;;;;;3.47;2.78;;;16.30;41.30;;;16.23;36.15;98066.69;5019991;28;20049;-34
2021/05/31 09:08:21;;;;;;;3.35;2.75;;;16.30;41.00;;;16.27;35.94;98072.53;5020720;28;20046;-34
2021/05/31 09:11:02;;;;;;;3.70;2.22;;;16.40;41.00;;;16.28;36.00;98061.56;5020897;28;20052;-35
2021/05/31 09:13:37;;;;;;;3.03;2.28;;;16.40;40.00;;;16.31;36.56;98060.38;5021234;28;20056;-35
2021/05/31 09:16:20;;;;;;;5.60;3.08;;;16.40;41.60;;;16.38;36.37;98063.97;5019468;28;20153;-35
2021/05/31 09:18:58;;;;;;;3.53;2.83;;;16.40;41.30;;;16.40;36.30;98064.63;5020298;28;20366;-35
2021/05/31 09:21:38;;;;;;;3.05;2.50;;;16.50;41.50;;;16.43;36.09;98068.78;5019214;28;20057;-35
2021/05/31 09:24:22;;;;;;;7.63;2.40;;;16.50;40.60;;;16.47;36.03;98067.38;5020691;28;20390;-35
2021/05/31 09:26:59;;;;;;;3.17;2.03;;;16.50;40.80;;;16.49;35.84;98065.34;5020283;28;20061;-35
2021/05/31 09:29:29;;;;;;;3.10;2.42;;;16.60;41.20;;;16.53;36.43;98058.56;5019595;28;20049;-35
2021/05/31 09:32:06;;;;;;;6.30;2.30;;;16.60;41.70;;;16.56;36.24;98066.25;5015583;28;20076;-36
2021/05/31 09:34:35;;;;;;;4.57;2.22;;;16.70;41.20;;;16.60;36.46;98061.34;5019383;28;20367;-36
2021/05/31 09:37:04;;;;;;;4.75;2.80;;;16.70;41.60;;;16.63;36.12;98059.06;5019631;28;20371;-35
2021/05/31 09:39:40;;;;;;;4.32;2.30;;;16.70;41.40;;;16.67;36.10;98055.03;5019822;28;20062;-34
2021/05/31 09:42:14;;;;;;;4.15;2.20;;;16.80;41.30;;;16.74;35.82;98057.75;5020576;28;20046;-34
2021/05/31 09:45:08;;;;;;;2.72;2.50;;;16.90;41.40;;;16.79;35.61;98058.03;5035196;28;20041;-35
2021/05/31 09:47:37;;;;;;;2.60;2.37;;;16.90;39.50;;;16.84;35.84;98054.78;5044065;28;20217;-35
2021/05/31 09:50:08;;;;;;;3.00;2.45;;;16.90;40.70;;;16.83;35.47;98042.38;5043833;28;20393;-35
2021/05/31 09:52:38;;;;;;;3.53;2.78;;;17.00;40.40;;;16.88;35.84;98040.75;5044289;28;20044;-35
2021/05/31 09:55:09;;;;;;;4.35;2.67;;;17.00;40.80;;;16.92;35.51;98052.81;5043936;28;20053;-35
2021/05/31 09:57:39;;;;;;;3.40;2.58;;;17.10;40.80;;;16.98;35.80;98047.69;5043826;28;20052;-35
2021/05/31 10:00:13;;;;;;;4.85;2.35;;;17.10;40.80;;;16.99;35.37;98044.00;5043342;28;20355;-34
2021/05/31 10:10:38;;;;;;;4.03;2.10;;;17.20;38.50;;;17.12;34.57;98039.56;5023903;28;20105;-35
2021/05/31 10:13:07;;;;;;;3.30;2.60;;;17.20;39.70;;;17.17;34.91;98038.97;5024075;28;20285;-36
2021/05/31 10:15:40;;;;;;;2.55;1.98;;;17.30;39.70;;;17.21;34.39;98040.25;5022824;28;20050;-35
2021/05/31 10:18:14;;;;;;;5.40;2.33;;;17.30;39.60;;;17.26;35.16;98035.13;5023622;28;20323;-36
2021/05/31 10:20:45;;;;;;;2.80;2.20;;;17.40;40.00;;;17.30;35.27;98031.00;5023785;28;20287;-36
2021/05/31 10:23:15;;;;;;;5.70;2.67;;;17.40;39.90;;;17.36;35.12;98029.41;5022620;28;20057;-37
2021/05/31 10:25:54;;;;;;;4.15;2.70;;;17.60;40.10;;;17.43;34.28;98034.84;5023753;28;20052;-35
2021/05/31 10:28:30;;;;;;;5.57;3.03;;;17.70;39.20;;;17.42;33.63;98027.78;5021857;28;20053;-35
2021/05/31 10:31:06;;;;;;;4.43;2.53;;;17.60;38.40;;;17.43;33.32;98027.59;5021509;28;20058;-35
2021/05/31 10:33:39;;;;;;;3.13;2.20;;;17.70;37.90;;;17.46;34.29;98029.88;5022748;28;20352;-34
2021/05/31 10:36:16;;;;;;;2.72;2.25;;;17.70;39.00;;;17.54;34.08;98022.69;5023657;28;20054;-34
2021/05/31 10:38:49;;;;;;;2.92;2.63;;;17.70;38.80;;;17.60;34.29;98020.06;5022942;28;20049;-35
2021/05/31 10:41:23;;;;;;;3.22;2.50;;;17.80;39.30;;;17.65;34.03;98024.84;5023045;28;20070;-35
2021/05/31 10:43:58;;;;;;;2.75;2.47;;;17.80;38.90;;;17.64;33.81;98024.03;5029906;28;20060;-35
2021/05/31 10:46:34;;;;;;;4.15;2.70;;;17.90;38.30;;;17.73;34.08;98018.47;5043373;28;20243;-35
2021/05/31 10:49:05;;;;;;;4.22;3.20;;;18.00;38.20;;;17.80;34.20;98022.06;5042592;28;20228;-35
2021/05/31 10:51:41;;;;;;;3.72;2.50;;;18.00;38.80;;;17.86;33.55;98022.09;5043154;28;20071;-35
2021/05/31 10:54:16;;;;;;;4.93;2.65;;;18.10;38.30;;;17.89;33.87;98024.41;5042031;28;20067;-35
2021/05/31 10:56:47;;;;;;;2.78;2.50;;;18.10;38.60;;;17.96;34.33;98029.81;5041486;28;20053;-35
2021/05/31 10:59:20;;;;;;;4.63;2.75;;;18.20;39.30;;;17.99;33.87;98024.06;5042729;28;20049;-35
2021/05/31 11:01:49;;;;;;;3.45;2.70;;;18.20;38.50;;;18.07;33.65;98017.66;5033881;28;20049;-35
2021/05/31 11:04:20;;;;;;;3.40;2.22;;;18.30;38.60;;;18.10;32.76;98014.56;5020529;28;20058;-35